Temir, Kazakhstan
Current Conditions -  °F | °C
As of 9:00 AM on Wednesday 28 Jan 2015 (Local Time) from UATT Reporting Station
Clear Clear  
Wind Chill: -40°   Ceiling: Unl
Heat Index: -26°   Visibility: 6mi
Dew Point: -31°   Wind: 4mph
Humidity: 76%   Direction: 130°SE
Pressure: 30.62"   Gusts: NA
Location:  49.14°N, 57.13°E
Report Text: UATT 280400Z 13002MPS CAVOK M32/M35 Q1037 R13/820255 NOSIG RMKQFE757/1010
Loading
Personal Weather Stations






























Interactive Weather Map New forecast layout! Learn more

10-Day Weather Forecast

Advertisements
Track Severe Weather on mobile